Latest Weather Observations for Little Bay

IDN60901

Issued at 2:41 am EDT Saturday 29 February 2020 (issued every 10 minutes, with the page automatically refreshed every 10 minutes)

About weather observations | Map of Sydney area stations | Latest observations for Sydney area | Other Formats
Station Details ID: 066051 Name: LITTLE BAY (THE COAST GOLF CLUB) Lat: -33.98 Lon: 151.25 Height: 22.0 m
Data from the previous 72 hours. | See also: Recent months at Little Bay
Date/Time
EDT
Temp
°C
App
Temp
°C
Dew
Point
°C
Rel
Hum
%
Delta-T
°C
Wind Press
QNH
hPa
Press
MSL
hPa
Rain since
9am
mm
Dir  Spd
km/h
Gust
km/h
Spd
kts
Gust
kts
29/02:30am - - - - - SSW 11 17 6 9 - - -
29/02:00am - - - - - SSW 13 19 7 10 - - -
29/01:30am - - - - - S 13 19 7 10 - - -
29/01:00am - - - - - SSW 9 13 5 7 - - -
29/12:30am - - - - - SSE 7 9 4 5 - - -
29/12:00am - - - - - ESE 7 9 4 5 - - -
 
Date/Time
EDT
Temp
°C
App
Temp
°C
Dew
Point
°C
Rel
Hum
%
Delta-T
°C
Wind Press
QNH
hPa
Press
MSL
hPa
Rain since
9am
mm
Dir  Spd
km/h
Gust
km/h
Spd
kts
Gust
kts
28/11:30pm - - - - - S 9 17 5 9 - - -
28/11:00pm - - - - - S 15 20 8 11 - - -
28/10:30pm - - - - - SSE 11 15 6 8 - - -
28/10:00pm - - - - - SE 13 17 7 9 - - -
28/09:30pm - - - - - SE 15 19 8 10 - - -
28/09:00pm - - - - - SE 17 24 9 13 - - -
28/08:30pm - - - - - SE 19 22 10 12 - - -
28/08:00pm - - - - - SSE 19 24 10 13 - - -
28/07:30pm - - - - - SE 20 26 11 14 - - -
28/07:00pm - - - - - SE 20 28 11 15 - - -
28/06:30pm - - - - - SE 24 30 13 16 - - -
28/06:00pm - - - - - SE 24 32 13 17 - - -
28/05:30pm - - - - - SSE 24 30 13 16 - - -
28/05:00pm - - - - - SE 24 30 13 16 - - -
28/04:30pm - - - - - SSE 24 32 13 17 - - -
28/04:00pm - - - - - SSE 22 30 12 16 - - -
28/03:30pm - - - - - SSE 22 30 12 16 - - -
28/03:00pm - - - - - S 20 30 11 16 - - -
28/02:30pm - - - - - S 22 32 12 17 - - -
28/02:00pm - - - - - SSW 22 30 12 16 - - -
28/01:30pm - - - - - SSW 22 30 12 16 - - -
28/01:00pm - - - - - SSW 20 26 11 14 - - -
28/12:30pm - - - - - SSW 22 30 12 16 - - -
28/12:00pm - - - - - SSW 20 28 11 15 - - -
28/11:30am - - - - - SSW 20 30 11 16 - - -
28/11:00am - - - - - SSW 19 26 10 14 - - -
28/10:30am - - - - - SSW 19 26 10 14 - - -
28/10:00am - - - - - S 20 28 11 15 - - -
28/09:30am - - - - - SSW 22 30 12 16 - - -
28/09:00am - - - - - SSW 22 32 12 17 - - -
28/08:30am - - - - - SW 11 20 6 11 - - -
28/08:00am - - - - - SW 7 13 4 7 - - -
28/07:30am - - - - - SW 9 13 5 7 - - -
28/07:00am - - - - - WSW 9 9 5 5 - - -
28/06:30am - - - - - WSW 9 11 5 6 - - -
28/06:00am - - - - - WSW 11 17 6 9 - - -
28/05:30am - - - - - WSW 11 17 6 9 - - -
28/05:00am - - - - - SW 15 20 8 11 - - -
28/04:30am - - - - - WSW 11 15 6 8 - - -
28/04:00am - - - - - WSW 7 9 4 5 - - -
28/03:30am - - - - - W 6 9 3 5 - - -
28/03:00am - - - - - W 7 9 4 5 - - -
28/02:30am - - - - - WSW 7 9 4 5 - - -
28/02:00am - - - - - W 6 7 3 4 - - -
28/01:30am - - - - - W 6 7 3 4 - - -
28/01:00am - - - - - W 7 9 4 5 - - -
28/12:30am - - - - - NW 6 9 3 5 - - -
28/12:00am - - - - - NNW 7 11 4 6 - - -
 
Date/Time
EDT
Temp
°C
App
Temp
°C
Dew
Point
°C
Rel
Hum
%
Delta-T
°C
Wind Press
QNH
hPa
Press
MSL
hPa
Rain since
9am
mm
Dir  Spd
km/h
Gust
km/h
Spd
kts
Gust
kts
27/11:30pm - - - - - NNW 7 11 4 6 - - -
27/11:00pm - - - - - N 9 17 5 9 - - -
27/10:30pm - - - - - N 11 15 6 8 - - -
27/10:00pm - - - - - NNE 13 20 7 11 - - -
27/09:30pm - - - - - NNE 19 24 10 13 - - -
27/09:00pm - - - - - NNE 20 26 11 14 - - -
27/08:30pm - - - - - NNE 22 32 12 17 - - -
27/08:00pm - - - - - NNE 22 30 12 16 - - -
27/07:30pm - - - - - NNE 26 35 14 19 - - -
27/07:00pm - - - - - NNE 26 37 14 20 - - -
27/06:30pm - - - - - NNE 28 35 15 19 - - -
27/06:00pm - - - - - NNE 24 32 13 17 - - -
27/05:30pm - - - - - NE 20 26 11 14 - - -
27/05:00pm - - - - - NE 20 26 11 14 - - -
27/04:30pm - - - - - NE 22 30 12 16 - - -
27/04:00pm - - - - - NE 24 32 13 17 - - -
27/03:30pm - - - - - NE 24 28 13 15 - - -
27/03:00pm - - - - - NE 22 30 12 16 - - -
27/02:30pm - - - - - NNE 22 30 12 16 - - -
27/02:00pm - - - - - NE 20 24 11 13 - - -
27/01:30pm - - - - - NE 13 17 7 9 - - -
27/01:00pm - - - - - ENE 9 11 5 6 - - -
27/12:30pm - - - - - E 7 9 4 5 - - -
27/12:00pm - - - - - E 6 9 3 5 - - -
27/11:30am - - - - - E 7 9 4 5 - - -
27/11:00am - - - - - ESE 4 7 2 4 - - -
27/10:30am - - - - - SE 6 9 3 5 - - -
27/10:00am - - - - - S 9 11 5 6 - - -
27/09:30am - - - - - S 11 13 6 7 - - -
27/09:00am - - - - - S 11 17 6 9 - - -
27/08:30am - - - - - S 11 15 6 8 - - -
27/08:00am - - - - - S 11 15 6 8 - - -
27/07:30am - - - - - S 11 15 6 8 - - -
27/07:00am - - - - - SSE 11 15 6 8 - - -
27/06:30am - - - - - SSE 13 20 7 11 - - -
27/06:00am - - - - - SSE 17 22 9 12 - - -
27/05:30am - - - - - SSE 17 24 9 13 - - -
27/05:00am - - - - - SSE 19 26 10 14 - - -
27/04:30am - - - - - SSE 20 28 11 15 - - -
27/04:00am - - - - - SSE 22 32 12 17 - - -
27/03:30am - - - - - SSE 26 33 14 18 - - -
27/03:00am - - - - - SSE 22 32 12 17 - - -
27/02:30am - - - - - SSE 24 33 13 18 - - -
27/02:00am - - - - - SSE 26 33 14 18 - - -
27/01:30am - - - - - S 24 32 13 17 - - -
27/01:00am - - - - - SSE 28 37 15 20 - - -
27/12:30am - - - - - SSE 28 37 15 20 - - -
27/12:00am - - - - - SSE 32 43 17 23 - - -
 
Date/Time
EDT
Temp
°C
App
Temp
°C
Dew
Point
°C
Rel
Hum
%
Delta-T
°C
Wind Press
QNH
hPa
Press
MSL
hPa
Rain since
9am
mm
Dir  Spd
km/h
Gust
km/h
Spd
kts
Gust
kts
26/11:30pm - - - - - S 33 46 18 25 - - -
26/11:00pm - - - - - SSE 37 50 20 27 - - -
26/10:30pm - - - - - SSE 41 54 22 29 - - -
26/10:00pm - - - - - S 39 54 21 29 - - -
26/09:30pm - - - - - S 43 61 23 33 - - -
26/09:00pm - - - - - S 43 61 23 33 - - -
26/08:30pm - - - - - S 44 69 24 37 - - -
26/08:00pm - - - - - SSW 41 65 22 35 - - -
26/07:30pm - - - - - SSW 46 76 25 41 - - -
26/07:23pm - - - - - SW 33 76 18 41 - - -
26/07:21pm - - - - - WSW 24 70 13 38 - - -
26/07:17pm - - - - - NW 15 50 8 27 - - -
26/07:00pm - - - - - N 13 22 7 12 - - -
26/06:30pm - - - - - NNE 15 28 8 15 - - -
26/06:00pm - - - - - N 13 20 7 11 - - -
26/05:30pm - - - - - N 17 24 9 13 - - -
26/05:00pm - - - - - NNE 15 20 8 11 - - -
26/04:30pm - - - - - NNW 15 24 8 13 - - -
26/04:00pm - - - - - NNW 17 30 9 16 - - -
26/03:30pm - - - - - WNW 17 33 9 18 - - -
26/03:00pm - - - - - WNW 13 24 7 13 - - -
26/02:30pm - - - - - WNW 11 19 6 10 - - -
26/02:00pm - - - - - W 15 24 8 13 - - -
26/01:30pm - - - - - WNW 15 26 8 14 - - -
26/01:00pm - - - - - WNW 17 32 9 17 - - -
26/12:30pm - - - - - WNW 13 24 7 13 - - -
26/12:00pm - - - - - WNW 15 32 8 17 - - -
26/11:30am - - - - - NW 17 26 9 14 - - -
26/11:00am - - - - - NW 13 28 7 15 - - -
26/10:30am - - - - - WNW 11 22 6 12 - - -
26/10:00am - - - - - WNW 9 17 5 9 - - -
26/09:30am - - - - - NW 9 17 5 9 - - -
26/09:00am - - - - - NW 4 9 2 5 - - -
26/08:30am - - - - - NW 6 7 3 4 - - -
26/08:00am - - - - - NW 6 9 3 5 - - -
26/07:30am - - - - - NNW 4 7 2 4 - - -
26/07:00am - - - - - NNW 4 6 2 3 - - -
26/06:30am - - - - - NNW 4 6 2 3 - - -
26/06:00am - - - - - CALM 0 0 0 0 - - -
26/05:30am - - - - - CALM 0 0 0 0 - - -
26/05:00am - - - - - N 2 4 1 2 - - -
26/04:30am - - - - - N 9 15 5 8 - - -
26/04:00am - - - - - NNE 13 17 7 9 - - -
26/03:30am - - - - - NNE 13 20 7 11 - - -
26/03:00am - - - - - NNE 11 15 6 8 - - -

Latest Capital City Observations: Canberra | Sydney | Melbourne | Brisbane | Adelaide | Perth | Hobart | Darwin

Other formats

Comma delimited format used in spreadsheet applications
http://www.bom.gov.au/fwo/IDN60901/IDN60901.94780.axf

JavaScript Object Notation format (JSON) in row-major order
http://www.bom.gov.au/fwo/IDN60901/IDN60901.94780.json

Data quality

Most of these data are generated automatically and are frequently updated. Quality checks on data are not normally performed. It is possible for incorrect values to appear. Refer to information at About Latest Weather Observations and please check the disclaimer before using these data.